Time;durP1;ratioP1;P1;durP2;ratioP2;P2;SDS_P1;SDS_P2;PMS_P1;PMS_P2;Temp;Humidity;BMP_temperature;BMP_pressure;BME280_temperature;BME280_humidity;BME280_pressure;Samples;Min_cycle;Max_cycle;Signal;HPM_P1;HPM_P2
2023/02/14 00:01:52;;;;;;;;;;;-1.00;56.20;;;;;;5091622;28;19927;-79
2023/02/14 00:04:18;;;;;;;;;;;-1.00;55.50;;;;;;5080557;28;19920;-80
2023/02/14 00:06:44;;;;;;;;;;;-1.10;53.90;;;;;;5075393;28;19979;-79
2023/02/14 00:09:12;;;;;;;;;;;-1.00;58.40;;;;;;5073250;28;20304;-78
2023/02/14 00:11:38;;;;;;;;;;;-1.10;58.60;;;;;;5082863;28;19913;-78
2023/02/14 00:16:48;;;;;;;;;;;-1.20;58.20;;;;;;5089107;28;19919;-80
2023/02/14 00:19:16;;;;;;;;;;;-1.30;57.70;;;;;;5082266;28;19999;-79
2023/02/14 00:21:42;;;;;;;;;;;-1.20;57.90;;;;;;5077961;28;19912;-79
2023/02/14 00:24:09;;;;;;;;;;;-1.30;58.10;;;;;;5078372;28;19917;-79
2023/02/14 00:26:37;;;;;;;;;;;-1.30;59.20;;;;;;5079643;28;19913;-79
2023/02/14 00:29:07;;;;;;;;;;;-1.30;59.70;;;;;;5100314;28;19999;-80
2023/02/14 00:31:34;;;;;;;;;;;-1.30;62.40;;;;;;5087717;28;19924;-79
2023/02/14 00:34:00;;;;;;;;;;;-1.30;61.90;;;;;;5086645;28;19920;-79
2023/02/14 00:36:27;;;;;;;;;;;-1.40;60.10;;;;;;5087049;28;19912;-79
2023/02/14 00:38:53;;;;;;;;;;;-1.30;61.50;;;;;;5082892;28;20266;-80
2023/02/14 00:41:19;;;;;;;;;;;-1.40;59.50;;;;;;5076104;28;19919;-79
2023/02/14 00:43:48;;;;;;;;;;;-1.40;61.50;;;;;;5080170;28;19913;-79
2023/02/14 00:46:15;;;;;;;;;;;-1.30;62.50;;;;;;5087960;28;19923;-80
2023/02/14 00:48:41;;;;;;;;;;;-1.30;62.60;;;;;;5089056;28;19913;-78
2023/02/14 00:51:07;;;;;;;;;;;-1.40;61.60;;;;;;5102416;28;19918;-79
2023/02/14 00:53:34;;;;;;;;;;;-1.40;59.30;;;;;;5086917;28;19916;-79
2023/02/14 00:56:00;;;;;;;;;;;-1.50;58.10;;;;;;5084339;28;19916;-78
2023/02/14 00:58:26;;;;;;;;;;;-1.50;58.20;;;;;;5082015;28;19913;-79
2023/02/14 01:00:53;;;;;;;;;;;-1.60;59.50;;;;;;5099531;27;19916;-80
2023/02/14 01:03:19;;;;;;;;;;;-1.60;60.60;;;;;;5086098;28;19927;-80
2023/02/14 01:05:48;;;;;;;;;;;-1.70;58.90;;;;;;5091486;28;19916;-78
2023/02/14 01:08:14;;;;;;;;;;;-1.80;57.90;;;;;;5084487;28;19923;-79
2023/02/14 01:10:40;;;;;;;;;;;-1.80;59.60;;;;;;5084260;28;20285;-77
2023/02/14 01:13:06;;;;;;;;;;;-1.80;62.10;;;;;;5084961;28;19919;-78
2023/02/14 01:15:37;;;;;;;;;;;-1.80;63.40;;;;;;5079669;28;19917;-78
2023/02/14 01:18:04;;;;;;;;;;;-1.90;66.00;;;;;;5083062;28;20361;-78
2023/02/14 01:20:30;;;;;;;;;;;-1.90;66.90;;;;;;5082016;28;19974;-78
2023/02/14 01:22:57;;;;;;;;;;;-1.90;68.80;;;;;;5080574;28;19923;-78
2023/02/14 01:25:23;;;;;;;;;;;-1.90;71.10;;;;;;5083187;28;20373;-78
2023/02/14 01:27:50;;;;;;;;;;;-2.00;73.70;;;;;;5087766;28;19912;-79
2023/02/14 01:30:16;;;;;;;;;;;-2.00;76.60;;;;;;5082520;28;19908;-78
2023/02/14 01:32:42;;;;;;;;;;;-2.00;78.70;;;;;;5080463;28;19923;-77
2023/02/14 01:35:08;;;;;;;;;;;-1.90;86.20;;;;;;5082239;28;20672;-78
2023/02/14 01:37:34;;;;;;;;;;;-1.90;90.70;;;;;;5070679;28;20277;-77
2023/02/14 01:40:01;;;;;;;;;;;-2.00;90.80;;;;;;5072779;28;19908;-78
2023/02/14 01:42:27;;;;;;;;;;;-1.90;91.00;;;;;;5085238;28;19917;-78
2023/02/14 01:44:58;;;;;;;;;;;-2.00;92.90;;;;;;5081680;28;19920;-79
2023/02/14 01:47:25;;;;;;;;;;;-2.00;96.10;;;;;;5093049;28;19912;-78
2023/02/14 01:49:54;;;;;;;;;;;-2.00;96.20;;;;;;5081677;28;20259;-78
2023/02/14 01:52:23;;;;;;;;;;;-2.00;95.70;;;;;;5083753;28;19916;-78
2023/02/14 01:54:54;;;;;;;;;;;-2.00;94.80;;;;;;5082189;28;19915;-78
2023/02/14 01:57:23;;;;;;;;;;;-2.10;93.30;;;;;;5081209;28;19913;-78
2023/02/14 01:59:54;;;;;;;;;;;-2.10;97.00;;;;;;5079900;28;19912;-78
2023/02/14 02:02:22;;;;;;;;;;;-2.20;96.90;;;;;;5083224;28;19930;-78
2023/02/14 02:04:50;;;;;;;;;;;-2.20;98.10;;;;;;5080734;28;20288;-77
2023/02/14 02:07:17;;;;;;;;;;;-2.20;98.20;;;;;;5083086;28;19913;-77
2023/02/14 02:09:58;;;;;;;;;;;-2.20;98.20;;;;;;5074997;28;19917;-77
2023/02/14 02:12:24;;;;;;;;;;;-2.20;99.20;;;;;;5074783;28;19923;-77
2023/02/14 02:14:52;;;;;;;;;;;-2.30;99.50;;;;;;5084699;28;19909;-77
2023/02/14 02:17:36;;;;;;;;;;;-2.30;98.70;;;;;;5091696;28;19912;-77
2023/02/14 02:20:02;;;;;;;;;;;-2.30;99.00;;;;;;5093892;27;19909;-78
2023/02/14 02:22:46;;;;;;;;;;;-2.30;97.70;;;;;;5076356;28;19927;-78
2023/02/14 02:25:20;;;;;;;;;;;-2.30;97.40;;;;;;5072279;28;19912;-78
2023/02/14 02:28:01;;;;;;;;;;;-2.30;97.50;;;;;;5081626;28;20254;-77
2023/02/14 02:30:35;;;;;;;;;;;-2.30;96.50;;;;;;5082179;28;19912;-77
2023/02/14 02:33:05;;;;;;;;;;;-2.40;95.40;;;;;;5081003;28;20102;-78
2023/02/14 02:35:40;;;;;;;;;;;-2.40;97.50;;;;;;5081384;28;19939;-78
2023/02/14 02:38:25;;;;;;;;;;;-2.40;97.30;;;;;;5082602;28;20281;-77
2023/02/14 02:40:57;;;;;;;;;;;-2.50;96.90;;;;;;5081020;28;19920;-77
2023/02/14 02:43:23;;;;;;;;;;;-2.50;97.10;;;;;;5079314;28;19924;-77
2023/02/14 02:48:46;;;;;;;;;;;-2.60;98.70;;;;;;5081759;28;19912;-77
2023/02/14 02:54:07;;;;;;;;;;;-2.60;99.90;;;;;;5087391;28;19919;-78
2023/02/14 02:56:44;;;;;;;;;;;-2.60;99.90;;;;;;5078082;28;19923;-78
2023/02/14 02:59:22;;;;;;;;;;;-2.60;99.90;;;;;;5080574;28;19912;-78
2023/02/14 03:02:09;;;;;;;;;;;-2.60;99.90;;;;;;5091649;28;19928;-76
2023/02/14 03:04:53;;;;;;;;;;;-2.60;99.90;;;;;;5078129;28;20400;-76
2023/02/14 03:07:34;;;;;;;;;;;-2.70;99.90;;;;;;5109439;27;19920;-77
2023/02/14 03:10:13;;;;;;;;;;;-2.70;99.90;;;;;;5080068;28;20643;-77
2023/02/14 03:12:52;;;;;;;;;;;-2.60;99.90;;;;;;5089670;28;19912;-77
2023/02/14 03:15:21;;;;;;;;;;;-2.60;99.90;;;;;;5083872;28;19916;-77
2023/02/14 03:18:12;;;;;;;;;;;-2.60;99.90;;;;;;5081975;28;19919;-77
2023/02/14 03:20:48;;;;;;;;;;;-2.60;99.80;;;;;;5074657;28;19924;-77
2023/02/14 03:23:14;;;;;;;;;;;-2.60;98.40;;;;;;5087201;28;20373;-77
2023/02/14 03:25:44;;;;;;;;;;;-2.60;96.90;;;;;;5095737;27;19912;-77
2023/02/14 03:28:17;;;;;;;;;;;-2.60;94.80;;;;;;5083037;28;19916;-77
2023/02/14 03:30:53;;;;;;;;;;;-2.70;92.60;;;;;;5083779;28;19912;-76
2023/02/14 03:33:28;;;;;;;;;;;-2.60;90.40;;;;;;5081011;28;19916;-77
2023/02/14 03:36:00;;;;;;;;;;;-2.70;85.90;;;;;;5090895;28;19927;-76
2023/02/14 03:38:33;;;;;;;;;;;-2.70;89.60;;;;;;5091724;28;19912;-77
2023/02/14 03:41:06;;;;;;;;;;;-2.70;90.20;;;;;;5079140;28;20301;-78
2023/02/14 03:43:34;;;;;;;;;;;-2.80;87.60;;;;;;5069469;28;20365;-77
2023/02/14 03:46:06;;;;;;;;;;;-2.80;84.80;;;;;;5074591;28;19917;-77
2023/02/14 03:48:34;;;;;;;;;;;-2.80;84.70;;;;;;5080983;28;20376;-78
2023/02/14 03:51:00;;;;;;;;;;;-2.80;86.60;;;;;;5077427;28;19983;-77
2023/02/14 03:53:30;;;;;;;;;;;-2.80;84.80;;;;;;5079359;28;19912;-77
2023/02/14 03:56:07;;;;;;;;;;;-2.90;84.80;;;;;;5111066;27;19919;-77
2023/02/14 03:58:35;;;;;;;;;;;-2.80;88.10;;;;;;5074580;28;19922;-78
2023/02/14 04:01:19;;;;;;;;;;;-2.80;85.80;;;;;;5080971;28;19920;-77
2023/02/14 04:03:46;;;;;;;;;;;-2.90;83.50;;;;;;5092989;28;19965;-76
2023/02/14 04:06:12;;;;;;;;;;;-2.90;81.30;;;;;;5083525;28;19912;-77
2023/02/14 04:08:38;;;;;;;;;;;-2.90;78.70;;;;;;5084049;28;19912;-77
2023/02/14 04:11:04;;;;;;;;;;;-2.80;77.20;;;;;;5082500;28;20743;-77
2023/02/14 04:13:30;;;;;;;;;;;-2.70;76.70;;;;;;5078848;28;20285;-77
2023/02/14 04:15:56;;;;;;;;;;;-2.90;72.30;;;;;;5078381;28;19909;-77
2023/02/14 04:21:07;;;;;;;;;;;-2.90;63.30;;;;;;5083465;28;19908;-77
2023/02/14 04:23:33;;;;;;;;;;;-3.00;58.10;;;;;;5083313;28;19924;-77
2023/02/14 04:25:59;;;;;;;;;;;-3.00;55.50;;;;;;5083700;28;19913;-77
2023/02/14 04:28:25;;;;;;;;;;;-3.10;52.70;;;;;;5086199;28;19912;-77
2023/02/14 04:30:51;;;;;;;;;;;-3.10;52.60;;;;;;5085730;28;19915;-77
2023/02/14 04:33:17;;;;;;;;;;;-3.10;52.80;;;;;;5090558;28;20316;-77
2023/02/14 04:35:43;;;;;;;;;;;-3.10;54.20;;;;;;5079638;28;19962;-77
2023/02/14 04:38:09;;;;;;;;;;;-3.20;54.20;;;;;;5087794;28;19915;-78
2023/02/14 04:40:35;;;;;;;;;;;-3.20;54.40;;;;;;5079721;28;20353;-77
2023/02/14 04:43:01;;;;;;;;;;;-3.20;55.30;;;;;;5084168;28;19916;-77
2023/02/14 04:45:27;;;;;;;;;;;-3.20;55.10;;;;;;5080921;28;19923;-77
2023/02/14 04:47:53;;;;;;;;;;;-3.30;54.00;;;;;;5083259;28;20007;-76
2023/02/14 04:50:19;;;;;;;;;;;-3.30;54.20;;;;;;5090604;28;20265;-76
2023/02/14 04:52:45;;;;;;;;;;;-3.30;55.20;;;;;;5085880;28;19919;-77
2023/02/14 04:55:11;;;;;;;;;;;-3.30;58.70;;;;;;5116384;27;19912;-78
2023/02/14 04:57:36;;;;;;;;;;;-3.30;61.50;;;;;;5084641;28;19951;-77
2023/02/14 05:00:03;;;;;;;;;;;-3.30;63.10;;;;;;5085468;28;19984;-78
2023/02/14 05:02:29;;;;;;;;;;;-3.40;62.40;;;;;;5095555;27;19924;-78
2023/02/14 05:04:55;;;;;;;;;;;-3.40;62.10;;;;;;5081495;28;19966;-78
2023/02/14 05:07:21;;;;;;;;;;;-3.40;63.50;;;;;;5081871;28;19913;-78
2023/02/14 05:09:47;;;;;;;;;;;-3.40;62.80;;;;;;5080236;28;19908;-78
2023/02/14 05:12:14;;;;;;;;;;;-3.50;62.80;;;;;;5082770;28;20357;-78
2023/02/14 05:14:40;;;;;;;;;;;-3.50;64.30;;;;;;5082088;28;19912;-79
2023/02/14 05:17:06;;;;;;;;;;;-3.50;65.70;;;;;;5094975;28;19915;-79
2023/02/14 05:19:32;;;;;;;;;;;-3.50;67.50;;;;;;5063927;28;19962;-78
2023/02/14 05:21:58;;;;;;;;;;;-3.50;67.30;;;;;;5088023;28;19908;-79
2023/02/14 05:24:24;;;;;;;;;;;-3.60;69.60;;;;;;5083572;28;20336;-79
2023/02/14 05:26:50;;;;;;;;;;;-3.50;72.40;;;;;;5078562;28;20007;-78
2023/02/14 05:29:16;;;;;;;;;;;-3.50;73.40;;;;;;5085364;28;19908;-80
2023/02/14 05:31:42;;;;;;;;;;;-3.50;73.70;;;;;;5082562;28;19920;-80
2023/02/14 05:34:08;;;;;;;;;;;-3.60;72.30;;;;;;5082710;28;19963;-80
2023/02/14 05:36:34;;;;;;;;;;;-3.60;72.90;;;;;;5089805;28;19920;-79
2023/02/14 05:39:00;;;;;;;;;;;-3.60;73.90;;;;;;5078236;28;20273;-80
2023/02/14 05:41:26;;;;;;;;;;;-3.60;77.10;;;;;;5082727;28;20303;-80
2023/02/14 05:43:52;;;;;;;;;;;-3.50;81.60;;;;;;5081700;28;19923;-79
2023/02/14 05:46:18;;;;;;;;;;;-3.40;85.50;;;;;;5083441;28;19916;-82
2023/02/14 05:48:44;;;;;;;;;;;-3.30;85.90;;;;;;5096014;28;19915;-82
2023/02/14 05:51:10;;;;;;;;;;;-3.30;85.40;;;;;;5082041;28;19913;-83
2023/02/14 05:53:37;;;;;;;;;;;-3.20;86.90;;;;;;5089496;28;19920;-85
2023/02/14 05:56:03;;;;;;;;;;;-3.20;89.00;;;;;;5089991;28;19922;-85
2023/02/14 05:58:29;;;;;;;;;;;-3.10;87.60;;;;;;5086877;28;20350;-87
2023/02/14 06:00:56;;;;;;;;;;;-3.00;86.80;;;;;;5082860;28;19913;-83
2023/02/14 06:03:22;;;;;;;;;;;-2.90;85.90;;;;;;5088879;28;19924;-85
2023/02/14 06:05:48;;;;;;;;;;;-2.80;85.10;;;;;;5083941;28;19916;-85
2023/02/14 06:08:14;;;;;;;;;;;-2.70;79.70;;;;;;5096026;28;20234;-83
2023/02/14 06:10:40;;;;;;;;;;;-2.60;75.80;;;;;;5087226;28;20444;-74
2023/02/14 06:13:09;;;;;;;;;;;-2.50;68.50;;;;;;5080092;28;19923;-73
2023/02/14 06:15:36;;;;;;;;;;;-2.50;60.60;;;;;;5085877;28;19912;-74
2023/02/14 06:18:03;;;;;;;;;;;-2.40;53.80;;;;;;5080187;28;19919;-74
2023/02/14 06:20:30;;;;;;;;;;;-2.40;50.20;;;;;;5092718;28;19919;-75
2023/02/14 06:22:56;;;;;;;;;;;-2.30;48.00;;;;;;5088756;28;19908;-74
2023/02/14 06:25:22;;;;;;;;;;;-2.30;43.70;;;;;;5080324;28;19924;-74
2023/02/14 06:27:48;;;;;;;;;;;-2.30;42.50;;;;;;5100161;27;19919;-74
2023/02/14 06:30:15;;;;;;;;;;;-2.20;39.80;;;;;;5082119;28;20377;-74
2023/02/14 06:32:41;;;;;;;;;;;-2.20;40.10;;;;;;5088207;28;19915;-74
2023/02/14 06:35:07;;;;;;;;;;;-2.10;39.70;;;;;;5083920;28;20357;-74
2023/02/14 06:37:33;;;;;;;;;;;-2.10;37.20;;;;;;5114587;27;19922;-74
2023/02/14 06:40:00;;;;;;;;;;;-2.00;36.30;;;;;;5111539;27;19908;-77
2023/02/14 06:42:26;;;;;;;;;;;-2.00;35.90;;;;;;5090591;28;20360;-75
2023/02/14 06:44:52;;;;;;;;;;;-1.90;35.70;;;;;;5083074;28;19917;-75
2023/02/14 06:47:18;;;;;;;;;;;-1.90;35.20;;;;;;5115976;27;20018;-75
2023/02/14 06:49:44;;;;;;;;;;;-1.80;36.60;;;;;;5081374;28;19919;-75
2023/02/14 06:52:10;;;;;;;;;;;-1.80;36.20;;;;;;5078601;28;19915;-74
2023/02/14 06:54:36;;;;;;;;;;;-1.80;34.20;;;;;;5079438;28;19958;-75
2023/02/14 06:57:02;;;;;;;;;;;-1.70;33.10;;;;;;5089969;28;19958;-75
2023/02/14 06:59:28;;;;;;;;;;;-1.60;31.50;;;;;;5080389;28;19919;-75
2023/02/14 07:01:54;;;;;;;;;;;-1.60;32.80;;;;;;5078550;28;19925;-75
2023/02/14 07:04:20;;;;;;;;;;;-1.50;33.90;;;;;;5080068;28;19920;-75
2023/02/14 07:06:47;;;;;;;;;;;-1.50;33.00;;;;;;5079315;28;19916;-75
2023/02/14 07:09:16;;;;;;;;;;;-1.50;31.10;;;;;;5081196;28;19920;-75
2023/02/14 07:11:45;;;;;;;;;;;-1.40;32.60;;;;;;5117867;27;19919;-76
2023/02/14 07:14:12;;;;;;;;;;;-1.40;31.80;;;;;;5109443;27;20277;-76
2023/02/14 07:16:38;;;;;;;;;;;-1.20;36.50;;;;;;5087586;28;19912;-75
2023/02/14 07:19:04;;;;;;;;;;;-1.10;43.90;;;;;;5087134;28;19912;-76
2023/02/14 07:21:30;;;;;;;;;;;-1.00;47.90;;;;;;5079996;28;19922;-76
2023/02/14 07:23:56;;;;;;;;;;;-0.90;55.40;;;;;;5089266;28;19938;-76
2023/02/14 07:26:22;;;;;;;;;;;-0.90;57.60;;;;;;5082493;28;19919;-75
2023/02/14 07:28:48;;;;;;;;;;;-0.80;57.30;;;;;;5082733;28;19956;-76
2023/02/14 07:31:14;;;;;;;;;;;-0.80;57.20;;;;;;5080508;28;20322;-77
2023/02/14 07:33:40;;;;;;;;;;;-0.70;62.30;;;;;;5078630;28;19923;-76
2023/02/14 07:36:07;;;;;;;;;;;-0.70;69.10;;;;;;5090167;28;20412;-74
2023/02/14 07:38:34;;;;;;;;;;;-0.60;77.00;;;;;;5080083;28;19909;-74
2023/02/14 07:41:00;;;;;;;;;;;-0.50;90.00;;;;;;5080807;28;19912;-75
2023/02/14 07:43:26;;;;;;;;;;;-0.40;96.90;;;;;;5090332;28;19916;-76
2023/02/14 07:45:52;;;;;;;;;;;-0.20;99.90;;;;;;5078988;28;20446;-78
2023/02/14 07:48:18;;;;;;;;;;;-0.10;99.90;;;;;;5088855;28;19920;-78
2023/02/14 07:50:44;;;;;;;;;;;-0.10;99.90;;;;;;5080106;28;19916;-78
2023/02/14 07:53:10;;;;;;;;;;;0.00;99.90;;;;;;5070108;28;20760;-78
2023/02/14 07:55:36;;;;;;;;;;;0.00;99.90;;;;;;5090121;27;19912;-79
2023/02/14 07:58:02;;;;;;;;;;;0.00;99.90;;;;;;5091467;28;19912;-78
2023/02/14 08:00:28;;;;;;;;;;;0.10;99.90;;;;;;5093157;28;19999;-78
2023/02/14 08:02:54;;;;;;;;;;;0.10;99.90;;;;;;5089826;28;19936;-81
2023/02/14 08:05:21;;;;;;;;;;;0.10;99.90;;;;;;5084248;28;19924;-78
2023/02/14 08:07:47;;;;;;;;;;;0.20;99.90;;;;;;5067964;28;19924;-78
2023/02/14 08:10:13;;;;;;;;;;;0.20;99.90;;;;;;5071227;28;19916;-79
2023/02/14 08:12:57;;;;;;;;;;;0.20;99.90;;;;;;5075485;28;19912;-76
2023/02/14 08:18:12;;;;;;;;;;;0.30;99.90;;;;;;5085889;28;20404;-76
2023/02/14 08:20:38;;;;;;;;;;;0.30;99.90;;;;;;5089105;28;19912;-76
2023/02/14 08:23:04;;;;;;;;;;;0.30;99.90;;;;;;5080729;28;20003;-76
2023/02/14 08:25:30;;;;;;;;;;;0.30;99.90;;;;;;5079600;28;19920;-76
2023/02/14 08:27:56;;;;;;;;;;;0.30;99.90;;;;;;5077939;28;19913;-76
2023/02/14 08:30:22;;;;;;;;;;;0.40;99.90;;;;;;5087548;28;20174;-76
2023/02/14 08:32:48;;;;;;;;;;;0.40;99.90;;;;;;5089040;28;19916;-77
2023/02/14 08:35:14;;;;;;;;;;;0.40;99.90;;;;;;5087018;28;20551;-77
2023/02/14 08:37:40;;;;;;;;;;;0.40;99.90;;;;;;5074977;28;19909;-76
2023/02/14 08:40:07;;;;;;;;;;;0.50;99.90;;;;;;5082388;28;20002;-77
2023/02/14 08:42:33;;;;;;;;;;;0.50;99.90;;;;;;5085360;28;20280;-76
2023/02/14 08:44:59;;;;;;;;;;;0.50;99.90;;;;;;5081991;28;19923;-77
2023/02/14 08:47:24;;;;;;;;;;;0.60;99.90;;;;;;5077913;28;19944;-77
2023/02/14 08:49:51;;;;;;;;;;;0.50;99.90;;;;;;5086812;28;20365;-77
2023/02/14 08:52:17;;;;;;;;;;;0.60;99.90;;;;;;5083006;28;19919;-77
2023/02/14 08:54:42;;;;;;;;;;;0.60;99.90;;;;;;5087213;28;19919;-76
2023/02/14 08:57:08;;;;;;;;;;;0.60;99.90;;;;;;5079298;28;19912;-76
2023/02/14 08:59:34;;;;;;;;;;;0.60;99.90;;;;;;5090084;28;19947;-78
2023/02/14 09:02:00;;;;;;;;;;;0.70;99.90;;;;;;5087587;28;19939;-76
2023/02/14 09:04:26;;;;;;;;;;;0.70;99.90;;;;;;5081101;28;19936;-77
2023/02/14 09:06:53;;;;;;;;;;;0.80;99.90;;;;;;5080472;28;19962;-77
2023/02/14 09:09:19;;;;;;;;;;;0.90;99.90;;;;;;5088953;28;20357;-77
2023/02/14 09:11:45;;;;;;;;;;;0.90;99.90;;;;;;5094149;27;20289;-77
2023/02/14 09:14:11;;;;;;;;;;;1.00;99.90;;;;;;5088066;28;19995;-75
2023/02/14 09:16:37;;;;;;;;;;;1.00;99.90;;;;;;5080814;28;20369;-77
2023/02/14 09:19:03;;;;;;;;;;;1.20;99.90;;;;;;5091490;28;20022;-76
2023/02/14 09:21:29;;;;;;;;;;;1.20;99.90;;;;;;5081360;28;20007;-77
2023/02/14 09:23:55;;;;;;;;;;;1.20;99.90;;;;;;5082646;28;20444;-76
2023/02/14 09:26:21;;;;;;;;;;;1.20;93.10;;;;;;5117807;27;19923;-76
2023/02/14 09:28:47;;;;;;;;;;;1.10;82.50;;;;;;5080620;28;19908;-76
2023/02/14 09:31:15;;;;;;;;;;;1.10;76.30;;;;;;5097599;27;19913;-77
2023/02/14 09:33:41;;;;;;;;;;;1.20;78.30;;;;;;5082628;28;19919;-76
2023/02/14 09:38:52;;;;;;;;;;;1.10;55.30;;;;;;5093604;28;19912;-76
2023/02/14 09:41:40;;;;;;;;;;;1.20;58.40;;;;;;5093363;28;19923;-77
2023/02/14 09:44:11;;;;;;;;;;;1.30;57.30;;;;;;5086215;28;19917;-76
2023/02/14 09:46:44;;;;;;;;;;;1.50;52.00;;;;;;5088765;28;20291;-76
2023/02/14 09:49:13;;;;;;;;;;;1.40;36.80;;;;;;5079627;28;19920;-76
2023/02/14 09:51:42;;;;;;;;;;;1.50;37.20;;;;;;5096452;28;19908;-77
2023/02/14 09:54:13;;;;;;;;;;;1.50;33.60;;;;;;5080363;28;19919;-74
2023/02/14 09:56:55;;;;;;;;;;;1.50;26.20;;;;;;5084192;28;19912;-75
2023/02/14 09:59:33;;;;;;;;;;;1.60;22.60;;;;;;5082106;28;19920;-75
2023/02/14 10:02:05;;;;;;;;;;;1.60;21.20;;;;;;5074914;28;20280;-75
2023/02/14 10:04:31;;;;;;;;;;;1.70;22.20;;;;;;5086239;28;19920;-75
2023/02/14 10:07:02;;;;;;;;;;;1.70;18.10;;;;;;5117864;27;19923;-75
2023/02/14 10:09:38;;;;;;;;;;;1.60;14.30;;;;;;5079544;28;19916;-76
2023/02/14 10:12:05;;;;;;;;;;;1.60;13.50;;;;;;5079766;28;19916;-76
2023/02/14 10:14:35;;;;;;;;;;;1.70;17.00;;;;;;5083664;28;19908;-76
2023/02/14 10:17:07;;;;;;;;;;;1.80;8.70;;;;;;5082467;28;20255;-77
2023/02/14 10:19:37;;;;;;;;;;;1.80;1.30;;;;;;5081541;28;19916;-76
2023/02/14 10:22:08;;;;;;;;;;;1.80;1.00;;;;;;5088036;28;20292;-76
2023/02/14 10:24:46;;;;;;;;;;;1.90;1.00;;;;;;5091386;28;20071;-75
2023/02/14 10:27:31;;;;;;;;;;;1.90;1.00;;;;;;5078359;28;19923;-76
2023/02/14 10:29:57;;;;;;;;;;;1.90;1.00;;;;;;5085415;28;20384;-76
2023/02/14 10:32:30;;;;;;;;;;;2.00;1.00;;;;;;5087592;28;20004;-75
2023/02/14 10:34:59;;;;;;;;;;;2.00;1.00;;;;;;5088712;28;20384;-75
2023/02/14 10:37:25;;;;;;;;;;;2.20;4.70;;;;;;5082669;28;19912;-75
2023/02/14 10:39:51;;;;;;;;;;;2.40;2.20;;;;;;5088266;28;19966;-74
2023/02/14 10:42:22;;;;;;;;;;;2.60;1.00;;;;;;5098170;27;19944;-74
2023/02/14 10:44:53;;;;;;;;;;;2.70;1.00;;;;;;5090595;28;19916;-74
2023/02/14 10:47:46;;;;;;;;;;;2.60;1.00;;;;;;5086246;28;19920;-74
2023/02/14 10:50:18;;;;;;;;;;;2.60;1.00;;;;;;5081835;28;19920;-75
2023/02/14 10:53:10;;;;;;;;;;;2.40;1.00;;;;;;5080783;28;19939;-74
2023/02/14 10:55:43;;;;;;;;;;;2.50;1.00;;;;;;5104838;27;19920;-74
2023/02/14 10:58:12;;;;;;;;;;;2.50;1.00;;;;;;5085056;28;19913;-74
2023/02/14 11:00:40;;;;;;;;;;;2.40;1.00;;;;;;5075177;28;19912;-74
2023/02/14 11:03:07;;;;;;;;;;;2.30;1.00;;;;;;5082926;28;19917;-74
2023/02/14 11:05:35;;;;;;;;;;;2.30;1.00;;;;;;5080728;28;19920;-74
2023/02/14 11:08:01;;;;;;;;;;;2.30;1.00;;;;;;5088576;28;19939;-74
2023/02/14 11:10:31;;;;;;;;;;;2.30;1.00;;;;;;5080438;28;19913;-74
2023/02/14 11:12:57;;;;;;;;;;;2.40;1.00;;;;;;5101980;27;19912;-74
2023/02/14 11:15:26;;;;;;;;;;;2.40;1.00;;;;;;5088455;28;20273;-74
2023/02/14 11:18:12;;;;;;;;;;;2.30;1.00;;;;;;5091280;28;19916;-74
2023/02/14 11:20:38;;;;;;;;;;;2.30;1.00;;;;;;5083808;28;20284;-74
2023/02/14 11:23:16;;;;;;;;;;;2.40;1.00;;;;;;5078964;28;19913;-74
2023/02/14 11:25:48;;;;;;;;;;;2.40;1.00;;;;;;5083263;28;19916;-74
2023/02/14 11:28:17;;;;;;;;;;;2.40;1.00;;;;;;5084803;28;19935;-74
2023/02/14 11:30:45;;;;;;;;;;;2.40;1.00;;;;;;5093207;28;19919;-74
2023/02/14 11:33:32;;;;;;;;;;;2.40;1.00;;;;;;5090585;28;19924;-74
2023/02/14 11:35:58;;;;;;;;;;;2.50;1.00;;;;;;5089264;28;19918;-74
2023/02/14 11:38:29;;;;;;;;;;;2.70;1.00;;;;;;5078226;28;19921;-74
2023/02/14 11:40:56;;;;;;;;;;;2.70;1.00;;;;;;5081956;28;20015;-74
2023/02/14 11:43:30;;;;;;;;;;;2.70;1.00;;;;;;5116603;27;19919;-75
2023/02/14 11:46:04;;;;;;;;;;;2.80;1.00;;;;;;5081458;28;20392;-73
2023/02/14 11:48:32;;;;;;;;;;;2.70;1.00;;;;;;5080991;28;19920;-74
2023/02/14 11:51:14;;;;;;;;;;;2.80;1.00;;;;;;5074813;28;19912;-73
2023/02/14 11:53:44;;;;;;;;;;;2.80;1.00;;;;;;5089863;28;19912;-75
2023/02/14 11:56:10;;;;;;;;;;;2.70;1.00;;;;;;5078595;28;19913;-73
2023/02/14 11:58:38;;;;;;;;;;;2.70;1.00;;;;;;5079875;28;19913;-74
2023/02/14 12:01:04;;;;;;;;;;;2.60;1.00;;;;;;5086895;28;19920;-76
2023/02/14 12:03:38;;;;;;;;;;;2.60;1.00;;;;;;5078154;28;19917;-75
2023/02/14 12:06:04;;;;;;;;;;;2.50;1.00;;;;;;5083234;28;19927;-74
2023/02/14 12:08:31;;;;;;;;;;;2.60;1.00;;;;;;5081814;28;20358;-74
2023/02/14 12:11:20;;;;;;;;;;;2.70;1.00;;;;;;5087650;28;20362;-74
2023/02/14 12:13:53;;;;;;;;;;;2.90;1.00;;;;;;5079316;28;19924;-74
2023/02/14 12:16:31;;;;;;;;;;;2.90;1.00;;;;;;5081147;28;19912;-74
2023/02/14 12:19:12;;;;;;;;;;;3.00;1.00;;;;;;5084205;28;19913;-74
2023/02/14 12:21:37;;;;;;;;;;;2.90;1.00;;;;;;5077145;28;19938;-74
2023/02/14 12:24:15;;;;;;;;;;;3.00;1.00;;;;;;5080928;28;19936;-75
2023/02/14 12:27:03;;;;;;;;;;;3.00;1.00;;;;;;5088812;28;19916;-77
2023/02/14 12:29:29;;;;;;;;;;;2.90;1.00;;;;;;5080258;28;19923;-76
2023/02/14 12:31:57;;;;;;;;;;;2.90;1.00;;;;;;5081398;28;19948;-76
2023/02/14 12:34:29;;;;;;;;;;;2.80;1.00;;;;;;5090351;28;20249;-76
2023/02/14 12:37:34;;;;;;;;;;;2.80;1.00;;;;;;5089618;28;20909;-75
2023/02/14 12:40:23;;;;;;;;;;;2.90;1.00;;;;;;5045648;28;19913;-75
2023/02/14 12:42:52;;;;;;;;;;;3.00;1.00;;;;;;5041203;28;19921;-75
2023/02/14 12:45:18;;;;;;;;;;;3.00;1.00;;;;;;5072522;28;19916;-75
2023/02/14 12:47:46;;;;;;;;;;;3.10;1.00;;;;;;5086539;28;19923;-76
2023/02/14 12:50:19;;;;;;;;;;;3.10;1.00;;;;;;5078905;28;19915;-75
2023/02/14 12:53:00;;;;;;;;;;;3.10;1.00;;;;;;5084633;28;19921;-75
2023/02/14 12:55:48;;;;;;;;;;;3.20;1.00;;;;;;5082867;28;19935;-74
2023/02/14 12:58:21;;;;;;;;;;;3.20;1.00;;;;;;5081553;28;19917;-75
2023/02/14 13:01:02;;;;;;;;;;;3.30;1.00;;;;;;5081533;28;19928;-75
2023/02/14 13:03:35;;;;;;;;;;;3.40;1.00;;;;;;5090667;28;20400;-76
2023/02/14 13:06:07;;;;;;;;;;;3.30;1.00;;;;;;5084198;28;19916;-75
2023/02/14 13:08:36;;;;;;;;;;;3.30;1.00;;;;;;5096889;27;19923;-76
2023/02/14 13:11:11;;;;;;;;;;;3.20;1.00;;;;;;5078627;28;20365;-75
2023/02/14 13:14:06;;;;;;;;;;;3.20;1.00;;;;;;5088057;28;20242;-75
2023/02/14 13:16:40;;;;;;;;;;;3.10;1.00;;;;;;5068487;28;19912;-75
2023/02/14 13:19:24;;;;;;;;;;;3.10;1.00;;;;;;5081649;28;20015;-75
2023/02/14 13:21:52;;;;;;;;;;;3.40;1.00;;;;;;5084634;28;19943;-75
2023/02/14 13:24:47;;;;;;;;;;;3.60;1.00;;;;;;5080164;28;19912;-75
2023/02/14 13:27:21;;;;;;;;;;;3.60;1.00;;;;;;5075029;28;20374;-75
2023/02/14 13:29:49;;;;;;;;;;;3.90;1.00;;;;;;5083951;28;19913;-75
2023/02/14 13:32:17;;;;;;;;;;;4.00;1.00;;;;;;5080954;28;19913;-75
2023/02/14 13:34:45;;;;;;;;;;;4.20;1.00;;;;;;5100026;27;19940;-74
2023/02/14 13:37:12;;;;;;;;;;;4.10;1.00;;;;;;5081313;28;19908;-75
2023/02/14 13:39:44;;;;;;;;;;;4.20;1.00;;;;;;5082469;28;20293;-76
2023/02/14 13:42:10;;;;;;;;;;;4.10;1.00;;;;;;5088291;28;19919;-75
2023/02/14 13:44:47;;;;;;;;;;;4.30;1.00;;;;;;5080905;28;19916;-75
2023/02/14 13:47:18;;;;;;;;;;;4.40;1.00;;;;;;5082864;28;19916;-75
2023/02/14 13:49:50;;;;;;;;;;;4.30;1.00;;;;;;5081060;28;19916;-75
2023/02/14 13:52:34;;;;;;;;;;;4.00;1.00;;;;;;5075723;28;19919;-75
2023/02/14 13:55:02;;;;;;;;;;;4.00;1.00;;;;;;5086561;28;20293;-75
2023/02/14 13:57:30;;;;;;;;;;;4.00;1.00;;;;;;5078451;28;19912;-75
2023/02/14 14:00:14;;;;;;;;;;;3.90;1.00;;;;;;5080595;28;20452;-75
2023/02/14 14:02:47;;;;;;;;;;;3.90;1.00;;;;;;5081752;28;19924;-74
2023/02/14 14:05:28;;;;;;;;;;;3.90;1.00;;;;;;5085144;28;19923;-75
2023/02/14 14:08:13;;;;;;;;;;;3.80;1.00;;;;;;5092711;28;19920;-74
2023/02/14 14:10:49;;;;;;;;;;;3.70;1.00;;;;;;5084558;28;19918;-74
2023/02/14 14:13:34;;;;;;;;;;;3.80;1.00;;;;;;5089375;28;19920;-74
2023/02/14 14:16:18;;;;;;;;;;;3.60;1.00;;;;;;5083874;28;19913;-75
2023/02/14 14:18:44;;;;;;;;;;;3.50;1.00;;;;;;5080387;28;19916;-74
2023/02/14 14:21:25;;;;;;;;;;;3.70;1.00;;;;;;5081178;28;19914;-75
2023/02/14 14:24:04;;;;;;;;;;;3.80;1.00;;;;;;5082036;28;19912;-74
2023/02/14 14:26:35;;;;;;;;;;;3.80;1.00;;;;;;5082216;28;19920;-75
2023/02/14 14:29:08;;;;;;;;;;;3.90;1.00;;;;;;5084876;28;19913;-75
2023/02/14 14:31:35;;;;;;;;;;;4.00;1.00;;;;;;5079846;28;20416;-75
2023/02/14 14:34:01;;;;;;;;;;;3.80;1.00;;;;;;5082068;28;19917;-75
2023/02/14 14:36:27;;;;;;;;;;;3.60;1.00;;;;;;5080946;28;19921;-74
2023/02/14 14:38:53;;;;;;;;;;;3.60;1.00;;;;;;5086300;28;19978;-75
2023/02/14 14:41:25;;;;;;;;;;;3.60;1.00;;;;;;5082687;28;19912;-74
2023/02/14 14:43:52;;;;;;;;;;;3.50;1.00;;;;;;5081708;28;19936;-74
2023/02/14 14:46:18;;;;;;;;;;;3.70;1.00;;;;;;5083203;28;19916;-75
2023/02/14 14:48:45;;;;;;;;;;;3.70;1.00;;;;;;5090991;28;19920;-74
2023/02/14 14:51:24;;;;;;;;;;;3.60;1.00;;;;;;5087076;28;19913;-74
2023/02/14 14:53:56;;;;;;;;;;;3.60;1.00;;;;;;5088198;28;19912;-75
2023/02/14 14:56:26;;;;;;;;;;;3.70;1.00;;;;;;5083814;28;20357;-75
2023/02/14 14:58:52;;;;;;;;;;;3.60;1.00;;;;;;5087286;28;19919;-74